createdAt,value
2018-12-10T00:00:05.838Z,19.57
2018-12-10T00:02:33.301Z,19.58
2018-12-10T00:05:00.796Z,19.60
2018-12-10T00:07:28.378Z,19.63
2018-12-10T00:09:55.840Z,19.62
2018-12-10T00:12:23.298Z,19.60
2018-12-10T00:14:50.771Z,19.59
2018-12-10T00:17:18.254Z,19.58
2018-12-10T00:19:45.712Z,19.57
2018-12-10T00:22:13.163Z,19.57
2018-12-10T00:24:40.625Z,19.43
2018-12-10T00:27:08.084Z,19.56
2018-12-10T00:29:35.527Z,19.56
2018-12-10T00:32:02.964Z,19.54
2018-12-10T00:34:30.648Z,19.53
2018-12-10T00:36:58.154Z,19.54
2018-12-10T00:39:25.607Z,19.53
2018-12-10T00:41:53.065Z,19.53
2018-12-10T00:44:20.532Z,19.52
2018-12-10T00:46:47.976Z,19.52
2018-12-10T00:49:15.531Z,19.52
2018-12-10T00:51:42.987Z,19.52
2018-12-10T00:54:10.450Z,19.53
2018-12-10T00:56:37.910Z,19.49
2018-12-10T00:59:05.359Z,19.54
2018-12-10T01:01:32.894Z,19.55
2018-12-10T01:04:00.432Z,19.54
2018-12-10T01:06:27.908Z,19.54
2018-12-10T01:08:55.371Z,19.55
2018-12-10T01:11:22.818Z,19.56
2018-12-10T01:13:50.279Z,19.57
2018-12-10T01:16:17.760Z,19.59
2018-12-10T01:18:45.201Z,19.62
2018-12-10T01:21:12.693Z,19.64
2018-12-10T01:23:40.130Z,19.62
2018-12-10T01:26:07.700Z,19.61
2018-12-10T01:28:35.213Z,19.60
2018-12-10T01:31:02.689Z,19.60
2018-12-10T01:33:30.209Z,19.60
2018-12-10T01:35:57.760Z,19.61
2018-12-10T01:38:25.220Z,19.59
2018-12-10T01:40:52.691Z,19.60
2018-12-10T01:43:20.168Z,19.63
2018-12-10T01:45:47.624Z,19.66
2018-12-10T01:48:15.095Z,19.64
2018-12-10T01:50:42.531Z,19.65
2018-12-10T01:53:11.028Z,19.60
2018-12-10T01:55:38.490Z,19.57
2018-12-10T01:58:05.949Z,19.56
2018-12-10T02:00:33.397Z,19.59
2018-12-10T02:03:00.833Z,19.58
2018-12-10T02:05:28.320Z,19.56
2018-12-10T02:07:55.772Z,19.55
2018-12-10T02:10:23.302Z,19.53
2018-12-10T02:12:50.762Z,19.52
2018-12-10T02:15:18.207Z,19.52
2018-12-10T02:17:45.673Z,19.50
2018-12-10T02:20:13.148Z,19.50
2018-12-10T02:22:40.596Z,19.50
2018-12-10T02:25:08.073Z,19.49
2018-12-10T02:27:35.510Z,19.51
2018-12-10T02:30:03.085Z,19.51
2018-12-10T02:32:30.615Z,19.52
2018-12-10T02:34:58.072Z,19.54
2018-12-10T02:37:25.562Z,19.56
2018-12-10T02:39:52.990Z,19.58
2018-12-10T02:42:20.460Z,19.59
2018-12-10T02:44:47.908Z,19.61
2018-12-10T02:47:15.339Z,19.61
2018-12-10T02:49:42.780Z,19.61
2018-12-10T02:52:10.256Z,19.60
2018-12-10T02:54:37.723Z,19.58
2018-12-10T02:57:05.174Z,19.57
2018-12-10T02:59:32.639Z,19.61
2018-12-10T03:02:00.113Z,19.60
2018-12-10T03:04:27.560Z,19.58
2018-12-10T03:06:55.050Z,19.58
2018-12-10T03:09:22.519Z,19.57
2018-12-10T03:11:49.993Z,19.56
2018-12-10T03:14:17.443Z,19.57
2018-12-10T03:16:44.875Z,19.55
2018-12-10T03:19:12.335Z,19.55
2018-12-10T03:21:39.789Z,19.55
2018-12-10T03:24:07.248Z,19.56
2018-12-10T03:26:34.699Z,19.57
2018-12-10T03:29:02.176Z,19.55
2018-12-10T03:31:29.648Z,19.55
2018-12-10T03:33:57.211Z,19.54
2018-12-10T03:36:24.804Z,19.53
2018-12-10T03:38:52.274Z,19.54
2018-12-10T03:41:19.882Z,19.54
2018-12-10T03:43:47.375Z,19.53
2018-12-10T03:46:14.845Z,19.54
2018-12-10T03:48:42.327Z,19.53
2018-12-10T03:51:09.763Z,19.54
2018-12-10T03:53:37.219Z,19.57
2018-12-10T03:56:04.682Z,19.58
2018-12-10T03:58:32.134Z,19.60
2018-12-10T04:00:59.581Z,19.61
2018-12-10T04:03:27.035Z,19.62
2018-12-10T04:05:54.503Z,19.63
2018-12-10T04:08:22.061Z,19.63
2018-12-10T04:10:49.519Z,19.63
2018-12-10T04:13:16.970Z,19.62
2018-12-10T04:15:44.431Z,19.61
2018-12-10T04:18:11.888Z,19.61
2018-12-10T04:20:39.368Z,19.61
2018-12-10T04:23:06.901Z,19.59
2018-12-10T04:25:34.353Z,19.60
2018-12-10T04:28:01.911Z,19.59
2018-12-10T04:30:29.366Z,19.60
2018-12-10T04:32:56.852Z,19.60
2018-12-10T04:35:24.290Z,19.58
2018-12-10T04:37:51.749Z,19.59
2018-12-10T04:40:19.202Z,19.58
2018-12-10T04:42:46.631Z,19.57
2018-12-10T04:45:14.093Z,19.56
2018-12-10T04:47:41.670Z,19.54
2018-12-10T04:50:09.171Z,19.53
2018-12-10T04:52:36.610Z,19.54
2018-12-10T04:55:04.235Z,19.52
2018-12-10T04:57:31.709Z,19.52
2018-12-10T04:59:59.171Z,19.51
2018-12-10T05:02:26.628Z,19.52
2018-12-10T05:04:54.138Z,19.48
2018-12-10T05:07:21.727Z,19.52
2018-12-10T05:09:49.186Z,19.51
2018-12-10T05:12:16.735Z,19.49
2018-12-10T05:14:44.211Z,19.47
2018-12-10T05:17:11.683Z,19.48
2018-12-10T05:19:39.132Z,19.50
2018-12-10T05:22:06.575Z,19.51
2018-12-10T05:24:34.024Z,19.52
2018-12-10T05:27:01.712Z,19.58
2018-12-10T05:29:29.193Z,19.39
2018-12-10T05:31:56.656Z,18.98
2018-12-10T05:34:24.102Z,18.66
2018-12-10T05:36:51.642Z,18.32
2018-12-10T05:39:19.200Z,18.39
2018-12-10T05:41:46.716Z,18.22
2018-12-10T05:44:14.168Z,18.20
2018-12-10T05:46:41.619Z,18.16
2018-12-10T05:49:09.141Z,18.06
2018-12-10T05:51:36.591Z,17.88
2018-12-10T05:54:04.140Z,17.91
2018-12-10T05:56:31.644Z,17.77
2018-12-10T05:58:59.119Z,17.61
2018-12-10T06:01:26.566Z,17.57
2018-12-10T06:03:54.139Z,17.51
2018-12-10T06:06:21.603Z,17.49
2018-12-10T06:08:49.161Z,17.47
2018-12-10T06:11:16.601Z,17.37
2018-12-10T06:13:44.066Z,17.33
2018-12-10T06:16:11.656Z,17.26
2018-12-10T06:18:39.214Z,17.33
2018-12-10T06:21:06.782Z,17.94
2018-12-10T06:23:34.288Z,18.23
2018-12-10T06:26:01.749Z,18.49
2018-12-10T06:28:29.237Z,18.62
2018-12-10T06:30:56.769Z,18.70
2018-12-10T06:33:24.335Z,18.78
2018-12-10T06:35:51.793Z,18.85
2018-12-10T06:38:19.354Z,18.85
2018-12-10T06:40:46.865Z,18.89
2018-12-10T06:43:14.346Z,18.93
2018-12-10T06:45:41.819Z,18.96
2018-12-10T06:48:09.284Z,18.99
2018-12-10T06:50:36.721Z,19.01
2018-12-10T06:53:04.164Z,19.00
2018-12-10T06:55:31.620Z,19.05
2018-12-10T06:57:59.070Z,19.01
2018-12-10T07:00:26.583Z,19.01
2018-12-10T07:02:54.056Z,18.95
2018-12-10T07:05:21.492Z,18.94
2018-12-10T07:07:49.359Z,18.93
2018-12-10T07:10:16.803Z,18.92
2018-12-10T07:12:44.321Z,18.92
2018-12-10T07:15:11.794Z,18.90
2018-12-10T07:17:39.231Z,18.90
2018-12-10T07:20:06.960Z,18.86
2018-12-10T07:22:34.508Z,18.84
2018-12-10T07:25:01.952Z,18.84
2018-12-10T07:27:29.431Z,18.82
2018-12-10T07:29:56.979Z,18.81
2018-12-10T07:32:24.414Z,18.76
2018-12-10T07:34:51.866Z,18.73
2018-12-10T07:37:19.344Z,18.73
2018-12-10T07:39:46.817Z,18.73
2018-12-10T07:42:14.362Z,18.73
2018-12-10T07:44:41.836Z,18.74
2018-12-10T07:47:09.272Z,18.72
2018-12-10T07:49:36.835Z,18.70
2018-12-10T07:52:04.308Z,18.69
2018-12-10T07:54:31.749Z,18.68
2018-12-10T07:56:59.194Z,18.68
2018-12-10T07:59:26.657Z,18.70
2018-12-10T08:01:54.092Z,18.68
2018-12-10T08:04:26.231Z,18.68
2018-12-10T08:06:53.699Z,18.66
2018-12-10T08:09:21.156Z,18.65
2018-12-10T08:11:48.594Z,18.65
2018-12-10T08:14:16.052Z,18.64
2018-12-10T08:16:43.840Z,18.63
2018-12-10T08:19:11.400Z,18.59
2018-12-10T08:21:38.929Z,18.62
2018-12-10T08:24:06.368Z,18.62
2018-12-10T08:26:33.814Z,18.61
2018-12-10T08:29:07.442Z,18.60
2018-12-10T08:31:30.708Z,18.60
2018-12-10T08:33:58.217Z,18.60
2018-12-10T08:36:25.697Z,18.61
2018-12-10T08:38:53.171Z,18.61
2018-12-10T08:41:20.606Z,18.61
2018-12-10T08:43:48.168Z,18.61
2018-12-10T08:46:15.610Z,18.58
2018-12-10T08:48:43.077Z,18.58
2018-12-10T08:51:10.570Z,18.58
2018-12-10T08:53:38.075Z,18.57
2018-12-10T08:56:05.511Z,18.57
2018-12-10T08:58:33.000Z,18.57
2018-12-10T09:01:00.439Z,18.58
2018-12-10T09:03:27.928Z,18.59
2018-12-10T09:05:55.419Z,18.61
2018-12-10T09:08:22.911Z,18.61
2018-12-10T09:10:50.340Z,18.62
2018-12-10T09:13:17.771Z,18.61
2018-12-10T09:15:45.223Z,18.60
2018-12-10T09:18:12.686Z,18.59
2018-12-10T09:20:40.132Z,18.60
2018-12-10T09:23:07.565Z,18.63
2018-12-10T09:25:35.127Z,18.60
2018-12-10T09:28:02.589Z,18.62
2018-12-10T09:30:30.042Z,18.62
2018-12-10T09:32:57.504Z,18.64
2018-12-10T09:35:24.952Z,18.62
2018-12-10T09:37:52.410Z,18.61
2018-12-10T09:40:19.861Z,18.60
2018-12-10T09:42:47.287Z,18.62
2018-12-10T09:45:14.886Z,18.61
2018-12-10T09:47:42.391Z,18.62
2018-12-10T09:50:09.824Z,18.63
2018-12-10T09:52:37.376Z,18.62
2018-12-10T09:55:04.831Z,18.63
2018-12-10T09:57:32.712Z,18.63
2018-12-10T10:00:00.382Z,18.62
2018-12-10T10:02:27.858Z,18.62
2018-12-10T10:04:55.345Z,18.64
2018-12-10T10:07:28.411Z,18.61
2018-12-10T10:09:52.328Z,18.63
2018-12-10T10:12:19.808Z,18.64
2018-12-10T10:14:47.320Z,18.63
2018-12-10T10:17:14.759Z,18.64
2018-12-10T10:19:42.209Z,18.65
2018-12-10T10:22:09.636Z,18.64
2018-12-10T10:24:37.077Z,18.64
2018-12-10T10:27:04.559Z,18.64
2018-12-10T10:29:31.983Z,18.64
2018-12-10T10:31:59.486Z,18.65
2018-12-10T10:34:26.932Z,18.65
2018-12-10T10:36:54.386Z,18.64
2018-12-10T10:39:21.864Z,18.65
2018-12-10T10:41:49.296Z,18.65
2018-12-10T10:44:16.733Z,18.66
2018-12-10T10:46:44.183Z,18.66
2018-12-10T10:49:11.615Z,18.66
2018-12-10T10:51:39.048Z,18.67
2018-12-10T10:54:06.588Z,18.70
2018-12-10T10:56:34.042Z,18.70
2018-12-10T10:59:01.476Z,18.71
2018-12-10T11:01:34.539Z,18.71
2018-12-10T11:04:02.092Z,18.71
2018-12-10T11:06:29.616Z,18.73
2018-12-10T11:08:57.068Z,18.74
2018-12-10T11:11:24.490Z,18.75
2018-12-10T11:13:51.932Z,18.77
2018-12-10T11:16:19.465Z,18.79
2018-12-10T11:18:46.884Z,18.81
2018-12-10T11:21:14.351Z,18.84
2018-12-10T11:23:41.805Z,18.85
2018-12-10T11:26:09.247Z,18.88
2018-12-10T11:28:36.762Z,18.89
2018-12-10T11:31:04.207Z,18.91
2018-12-10T11:33:31.623Z,18.93
2018-12-10T11:35:59.177Z,18.94
2018-12-10T11:38:26.599Z,18.97
2018-12-10T11:40:54.012Z,18.98
2018-12-10T11:43:21.445Z,18.98
2018-12-10T11:45:48.901Z,19.00
2018-12-10T11:48:16.371Z,19.02
2018-12-10T11:50:43.839Z,19.04
2018-12-10T11:53:11.283Z,19.05
2018-12-10T11:55:38.725Z,19.07
2018-12-10T11:58:06.165Z,19.09
2018-12-10T12:00:33.604Z,19.11
2018-12-10T12:03:01.079Z,19.11
2018-12-10T12:05:28.585Z,19.13
2018-12-10T12:07:56.016Z,19.14
2018-12-10T12:10:23.581Z,19.08
2018-12-10T12:12:51.077Z,19.13
2018-12-10T12:15:18.498Z,19.14
2018-12-10T12:17:45.972Z,19.15
2018-12-10T12:20:13.428Z,19.15
2018-12-10T12:22:40.871Z,19.16
2018-12-10T12:25:08.460Z,19.17
2018-12-10T12:27:35.894Z,19.17
2018-12-10T12:30:03.383Z,19.17
2018-12-10T12:32:30.827Z,19.17
2018-12-10T12:34:58.428Z,19.17
2018-12-10T12:37:25.996Z,19.16
2018-12-10T12:39:53.547Z,19.16
2018-12-10T12:42:20.982Z,19.15
2018-12-10T12:44:48.420Z,19.14
2018-12-10T12:47:15.862Z,19.09
2018-12-10T12:49:43.319Z,19.06
2018-12-10T12:52:10.967Z,19.06
2018-12-10T12:54:38.410Z,19.03
2018-12-10T12:57:05.906Z,19.02
2018-12-10T12:59:33.340Z,19.02
2018-12-10T13:02:00.798Z,19.02
2018-12-10T13:04:32.915Z,19.05
2018-12-10T13:07:00.491Z,19.02
2018-12-10T13:09:28.106Z,19.03
2018-12-10T13:11:55.611Z,19.06
2018-12-10T13:14:23.061Z,19.08
2018-12-10T13:16:50.527Z,19.09
2018-12-10T13:19:17.984Z,19.08
2018-12-10T13:21:45.426Z,19.08
2018-12-10T13:24:12.896Z,19.08
2018-12-10T13:26:40.344Z,19.08
2018-12-10T13:29:07.887Z,19.07
2018-12-10T13:31:36.252Z,19.06
2018-12-10T13:34:03.682Z,19.07
2018-12-10T13:36:31.113Z,19.06
2018-12-10T13:38:58.555Z,19.06
2018-12-10T13:41:26.068Z,19.06
2018-12-10T13:43:53.593Z,19.05
2018-12-10T13:46:21.024Z,19.05
2018-12-10T13:48:48.501Z,19.05
2018-12-10T13:51:15.947Z,19.04
2018-12-10T13:53:43.371Z,19.04
2018-12-10T13:56:10.863Z,19.03
2018-12-10T13:58:38.418Z,19.03
2018-12-10T14:01:05.847Z,19.02
2018-12-10T14:03:33.275Z,19.04
2018-12-10T14:06:00.783Z,19.03
2018-12-10T14:08:28.229Z,19.01
2018-12-10T14:10:55.760Z,19.03
2018-12-10T14:13:23.279Z,19.02
2018-12-10T14:15:50.809Z,19.02
2018-12-10T14:18:18.346Z,19.02
2018-12-10T14:20:45.870Z,19.01
2018-12-10T14:23:13.336Z,19.02
2018-12-10T14:25:40.837Z,19.01
2018-12-10T14:28:08.275Z,19.02
2018-12-10T14:30:35.736Z,19.03
2018-12-10T14:33:03.180Z,19.03
2018-12-10T14:35:31.023Z,19.02
2018-12-10T14:37:58.540Z,19.01
2018-12-10T14:40:25.985Z,19.02
2018-12-10T14:42:54.402Z,19.01
2018-12-10T14:45:21.859Z,19.01
2018-12-10T14:47:52.009Z,19.01
2018-12-10T14:50:19.574Z,19.01
2018-12-10T14:52:47.019Z,19.00
2018-12-10T14:55:14.495Z,18.99
2018-12-10T14:57:42.049Z,18.88
2018-12-10T15:00:10.231Z,18.98
2018-12-10T15:02:37.680Z,18.99
2018-12-10T15:05:05.401Z,18.98
2018-12-10T15:07:32.948Z,18.97
2018-12-10T15:10:00.378Z,18.98
2018-12-10T15:12:27.937Z,18.98
2018-12-10T15:14:55.519Z,18.99
2018-12-10T15:17:22.951Z,18.98
2018-12-10T15:19:50.387Z,19.00
2018-12-10T15:22:17.807Z,19.01
2018-12-10T15:24:46.357Z,19.01
2018-12-10T15:27:13.808Z,19.01
2018-12-10T15:29:42.300Z,19.02
2018-12-10T15:32:09.785Z,19.02
2018-12-10T15:34:37.217Z,19.02
2018-12-10T15:37:04.647Z,19.02
2018-12-10T15:39:32.102Z,19.02
2018-12-10T15:41:59.638Z,19.01
2018-12-10T15:44:27.092Z,19.00
2018-12-10T15:46:54.540Z,19.00
2018-12-10T15:49:22.102Z,19.00
2018-12-10T15:51:49.648Z,19.01
2018-12-10T15:54:17.099Z,18.99
2018-12-10T15:56:44.607Z,18.99
2018-12-10T16:00:17.695Z,18.99
2018-12-10T16:02:45.164Z,18.98
2018-12-10T16:05:13.723Z,18.98
2018-12-10T16:07:41.212Z,18.98
2018-12-10T16:10:09.048Z,18.97
2018-12-10T16:12:36.533Z,18.96
2018-12-10T16:15:04.135Z,18.96
2018-12-10T16:17:32.992Z,18.94
2018-12-10T16:20:00.549Z,18.94
2018-12-10T16:22:28.085Z,18.93
2018-12-10T16:24:55.567Z,18.92
2018-12-10T16:27:24.368Z,18.92
2018-12-10T16:29:51.971Z,18.92
2018-12-10T16:32:19.467Z,18.92
2018-12-10T16:34:47.132Z,18.91
2018-12-10T16:37:14.806Z,18.91
2018-12-10T16:39:43.899Z,18.90
2018-12-10T16:42:11.599Z,18.89
2018-12-10T16:44:39.070Z,18.89
2018-12-10T16:47:06.611Z,18.91
2018-12-10T16:49:34.060Z,18.89
2018-12-10T16:52:01.646Z,18.90
2018-12-10T16:54:29.191Z,18.88
2018-12-10T16:56:56.699Z,18.91
2018-12-10T16:59:24.215Z,18.92
2018-12-10T17:01:51.673Z,18.95
2018-12-10T17:04:19.143Z,18.97
2018-12-10T17:06:46.847Z,18.98
2018-12-10T17:09:14.573Z,19.01
2018-12-10T17:11:42.260Z,19.04
2018-12-10T17:14:09.838Z,19.06
2018-12-10T17:16:37.671Z,19.09
2018-12-10T17:19:05.392Z,19.12
2018-12-10T17:21:32.921Z,19.15
2018-12-10T17:24:00.510Z,19.16
2018-12-10T17:26:27.958Z,19.17
2018-12-10T17:28:55.419Z,19.18
2018-12-10T17:31:23.928Z,19.17
2018-12-10T17:33:51.620Z,19.19
2018-12-10T17:36:19.215Z,19.19
2018-12-10T17:38:46.687Z,19.20
2018-12-10T17:41:14.137Z,19.20
2018-12-10T17:43:41.584Z,19.21
2018-12-10T17:46:09.026Z,19.20
2018-12-10T17:48:36.477Z,19.21
2018-12-10T17:51:03.935Z,19.21
2018-12-10T17:53:31.583Z,19.22
2018-12-10T17:55:59.298Z,19.22
2018-12-10T17:58:26.743Z,19.21
2018-12-10T18:00:54.187Z,19.23
2018-12-10T18:03:21.648Z,19.23
2018-12-10T18:05:49.205Z,19.23
2018-12-10T18:08:16.664Z,19.21
2018-12-10T18:10:44.140Z,19.20
2018-12-10T18:13:11.575Z,19.20
2018-12-10T18:15:39.070Z,19.18
2018-12-10T18:18:06.536Z,19.17
2018-12-10T18:20:34.019Z,19.17
2018-12-10T18:23:01.457Z,19.16
2018-12-10T18:25:28.985Z,19.13
2018-12-10T18:27:56.847Z,19.14
2018-12-10T18:30:24.299Z,19.13
2018-12-10T18:32:51.746Z,19.13
2018-12-10T18:35:19.212Z,19.13
2018-12-10T18:37:46.649Z,19.12
2018-12-10T18:40:14.372Z,19.10
2018-12-10T18:42:41.880Z,19.10
2018-12-10T18:45:11.051Z,19.08
2018-12-10T18:47:38.667Z,19.09
2018-12-10T18:50:06.118Z,19.09
2018-12-10T18:52:33.628Z,18.94
2018-12-10T18:55:01.103Z,19.08
2018-12-10T18:57:29.676Z,19.08
2018-12-10T18:59:57.151Z,19.09
2018-12-10T19:02:24.588Z,19.09
2018-12-10T19:04:52.147Z,19.10
2018-12-10T19:07:19.733Z,19.09
2018-12-10T19:09:47.169Z,19.12
2018-12-10T19:12:14.823Z,19.13
2018-12-10T19:14:42.297Z,19.13
2018-12-10T19:18:30.168Z,19.16
2018-12-10T19:20:57.742Z,19.38
2018-12-10T19:23:25.624Z,19.37
2018-12-10T19:25:53.556Z,19.38
2018-12-10T19:28:22.823Z,19.39
2018-12-10T19:30:50.700Z,19.40
2018-12-10T19:33:18.664Z,19.40
2018-12-10T19:35:46.956Z,19.39
2018-12-10T19:38:14.644Z,19.44
2018-12-10T19:40:42.349Z,19.44
2018-12-10T19:43:10.473Z,19.43
2018-12-10T19:45:38.193Z,19.41
2018-12-10T19:48:05.695Z,19.40
2018-12-10T19:50:33.135Z,19.39
2018-12-10T19:53:00.672Z,19.38
2018-12-10T19:55:28.119Z,19.37
2018-12-10T19:57:55.591Z,19.35
2018-12-10T20:00:23.103Z,19.35
2018-12-10T20:02:50.744Z,19.34
2018-12-10T20:05:18.462Z,19.33
2018-12-10T20:07:46.529Z,19.32
2018-12-10T20:10:13.963Z,19.32
2018-12-10T20:12:41.414Z,19.31
2018-12-10T20:15:09.084Z,19.30
2018-12-10T20:17:36.574Z,19.32
2018-12-10T20:20:04.816Z,19.30
2018-12-10T20:22:32.796Z,19.29
2018-12-10T20:25:00.511Z,19.28
2018-12-10T20:27:44.025Z,19.27
2018-12-10T20:30:12.204Z,19.26
2018-12-10T20:32:40.062Z,19.26
2018-12-10T20:35:07.678Z,19.27
2018-12-10T20:37:35.138Z,19.26
2018-12-10T20:40:02.656Z,19.25
2018-12-10T20:42:30.274Z,19.23
2018-12-10T20:44:57.757Z,19.23
2018-12-10T20:47:25.426Z,19.27
2018-12-10T20:49:53.333Z,19.26
2018-12-10T20:52:21.796Z,19.25
2018-12-10T20:54:54.714Z,19.25
2018-12-10T20:57:23.098Z,19.25
2018-12-10T20:59:51.588Z,19.25
2018-12-10T21:02:19.226Z,19.24
2018-12-10T21:04:46.911Z,19.24
2018-12-10T21:07:14.407Z,19.26
2018-12-10T21:09:41.885Z,19.26
2018-12-10T21:12:09.560Z,19.27
2018-12-10T21:14:37.014Z,19.29
2018-12-10T21:17:07.791Z,19.31
2018-12-10T21:19:36.376Z,19.25
2018-12-10T21:22:04.747Z,19.39
2018-12-10T21:24:32.444Z,19.43
2018-12-10T21:27:00.345Z,19.44
2018-12-10T21:29:28.264Z,19.41
2018-12-10T21:31:56.790Z,19.50
2018-12-10T21:34:27.786Z,19.50
2018-12-10T21:37:03.491Z,19.51
2018-12-10T21:39:31.129Z,19.51
2018-12-10T21:41:58.607Z,19.50
2018-12-10T21:44:29.558Z,19.50
2018-12-10T21:46:57.510Z,19.49
2018-12-10T21:49:25.237Z,19.49
2018-12-10T21:51:53.115Z,19.49
2018-12-10T21:54:20.599Z,19.47
2018-12-10T21:56:48.056Z,19.47
2018-12-10T21:59:15.582Z,19.46
2018-12-10T22:01:43.193Z,19.47
2018-12-10T22:04:10.947Z,19.44
2018-12-10T22:06:38.630Z,19.44
2018-12-10T22:09:08.429Z,19.44
2018-12-10T22:11:36.156Z,19.42
2018-12-10T22:14:03.965Z,19.41
2018-12-10T22:16:31.968Z,19.38
2018-12-10T22:18:59.624Z,19.35
2018-12-10T22:21:27.267Z,19.35
2018-12-10T22:23:54.769Z,19.34
2018-12-10T22:26:22.218Z,19.33
2018-12-10T22:28:49.661Z,19.31
2018-12-10T22:31:17.267Z,19.31
2018-12-10T22:33:44.836Z,19.44
2018-12-10T22:36:17.107Z,19.48
2018-12-10T22:38:51.897Z,19.54
2018-12-10T22:41:19.728Z,19.61
2018-12-10T22:43:47.368Z,19.71
2018-12-10T22:46:15.415Z,19.88
2018-12-10T22:48:43.430Z,19.89
2018-12-10T22:51:11.203Z,19.94
2018-12-10T22:53:39.007Z,19.94
2018-12-10T22:56:07.068Z,19.91
2018-12-10T22:58:34.620Z,19.97
2018-12-10T23:03:47.862Z,20.06
2018-12-10T23:06:15.355Z,20.10
2018-12-10T23:08:42.828Z,20.14
2018-12-10T23:11:10.619Z,20.14
2018-12-10T23:13:38.199Z,20.10
2018-12-10T23:16:05.988Z,20.09
2018-12-10T23:18:33.481Z,20.11
2018-12-10T23:21:02.297Z,20.12
2018-12-10T23:23:29.797Z,20.13
2018-12-10T23:25:57.259Z,20.14
2018-12-10T23:28:24.854Z,20.12
2018-12-10T23:30:52.343Z,20.12
2018-12-10T23:33:19.793Z,20.13
2018-12-10T23:35:47.271Z,20.13
2018-12-10T23:38:14.742Z,20.12
2018-12-10T23:40:42.222Z,20.13
2018-12-10T23:43:26.572Z,20.13
2018-12-10T23:45:54.106Z,20.13
2018-12-10T23:48:22.256Z,20.12
2018-12-10T23:50:49.756Z,20.12
2018-12-10T23:53:17.201Z,20.12
2018-12-10T23:55:44.747Z,20.12
2018-12-10T23:58:12.227Z,20.13
